• Join FlightAware (Why Join?)
  • Login
  • US Flag GB Flag 
03:17 EDT


 

Airport Tracker/Info


-or-


 

Live Flight TrackerFlight Track Log ✈ FDX872 ✈ 16-Mar-2012 ✈ KMHT - KMEM

Flight Track Log - Related Links

Times and Time Zones

All times are in EDT time to prevent confusion due to time zone crossing. See the FDX872 flight status page for this flight to view local times or setup timezone preferences in your user account.

Time Position Orientation Groundspeed Altitude Reporting Facility
EDT Latitude Longitude Course Direction KTS MPH feet Rate Location/Type
08:09 42.9167 -71.4333 180° South 131 151 900  Level Boston TRACON
08:10 42.8833 -71.4333 303° West 158 182 2,000 1,980 Climbing Boston TRACON
08:11 42.9219 -71.5158 North 246 283 4,900 2,400 Climbing Boston Center
08:12 42.9906 -71.5092 77° East 231 266 7,600 2,580 Climbing Boston Center
08:13 43.0083 -71.4067 81° East 223 257 10,100 2,040 Climbing Boston Center
08:14 43.0239 -71.2786 79° East 290 334 11,700 1,500 Climbing Boston Center
08:15 43.0472 -71.1161 90° East 373 429 13,200 1,800 Climbing Boston Center
08:16 43.0475 -70.9711 142° Southeast 414 476 15,400 2,160 Climbing Boston Center
08:17 42.9503 -70.8658 199° South 372 428 17,600 1,860 Climbing Boston Center
08:18 42.8444 -70.9167 212° Southwest 339 390 19,200 1,680 Climbing Boston Center
08:19 42.7436 -71.0011 201° Southwest 357 411 21,000 1,680 Climbing Boston Center
08:20 42.6297 -71.0603 213° Southwest 414 476 22,600 1,500 Climbing Boston Center
08:21 42.5244 -71.1528 246° West 447 514 24,100 1,320 Climbing Boston Center
08:22 42.4761 -71.3028 249° West 431 496 25,300 1,080 Climbing Boston Center
08:23 42.4317 -71.4611 247° West 436 502 26,300 1,020 Climbing Boston Center
08:24 42.3847 -71.6081 249° West 449 517 27,400 1,260 Climbing Boston Center
08:25 42.3381 -71.7744 249° West 466 536 28,900 1,500 Climbing Boston Center
08:26 42.2931 -71.9322 248° West 466 536 30,500 1,500 Climbing Boston Center
08:27 42.2456 -72.0894 250° West 466 536 32,000 1,380 Climbing Boston Center
08:28 42.2022 -72.2467 247° West 461 531 33,300 960 Climbing Boston Center
08:29 42.1544 -72.3981 249° West 455 524 34,000 900 Climbing Boston Center
08:30 42.1086 -72.5547 249° West 455 524 35,100 900 Climbing Boston Center
08:31 42.0667 -72.7031 236° Southwest 449 517 35,900 420 Climbing Boston Center
08:32 41.9994 -72.8394 228° Southwest 437 503 36,000  Climbing Boston Center
08:33 41.9072 -72.9783 227° Southwest 442 509 36,000  Level Boston Center
08:35 41.7784 -73.1654 228° Southwest 450 518 36,000  Level FlightAware ADS-B
08:36 41.6981 -73.2849 228° Southwest 448 516 36,000  Level FlightAware ADS-B
08:36 41.6547 -73.3487 227° Southwest 449 517 36,000  Level FlightAware ADS-B
08:37 41.6022 -73.4251 228° Southwest 451 519 36,000  Level FlightAware ADS-B
08:38 41.5552 -73.4953 228° Southwest 451 519 36,000  Level FlightAware ADS-B
08:38 41.5043 -73.5695 227° Southwest 452 520 36,000  Level FlightAware ADS-B
08:39 41.4518 -73.6454 228° Southwest 452 520 36,000  Level FlightAware ADS-B
08:39 41.4087 -73.7091 228° Southwest 452 520 36,000  Level FlightAware ADS-B
08:40 41.3539 -73.7893 227° Southwest 453 521 36,000  Level FlightAware ADS-B
08:40 41.3047 -73.8593 228° Southwest 454 522 36,000  Level FlightAware ADS-B
08:41 41.2611 -73.9231 227° Southwest 455 524 36,000  Level FlightAware ADS-B
08:42 41.2083 -73.9991 228° Southwest 454 522 36,000  Level FlightAware ADS-B
08:42 41.1605 -74.0691 230° Southwest 456 525 36,000  Level FlightAware ADS-B
08:43 41.1142 -74.1414 230° Southwest 452 520 36,000  Level FlightAware ADS-B
08:43 41.0859 -74.1866 231° Southwest 454 522 36,000  Level FlightAware ADS-B
08:44 41.0367 -74.2657 230° Southwest 454 522 36,000  Level FlightAware ADS-B
08:44 40.9938 -74.3345 230° Southwest 455 524 36,000  Level FlightAware ADS-B
08:45 40.9495 -74.4055 231° Southwest 456 525 36,000  Level FlightAware ADS-B
08:45 40.9056 -74.4766 230° Southwest 457 526 36,000  Level FlightAware ADS-B
08:46 40.8649 -74.5413 231° Southwest 456 525 36,000  Level FlightAware ADS-B
08:46 40.8218 -74.6121 230° Southwest 455 524 36,000  Level FlightAware ADS-B
08:47 40.7815 -74.6763 230° Southwest 453 521 36,000  Level FlightAware ADS-B
08:47 40.7407 -74.7399 231° Southwest 452 520 36,000  Level FlightAware ADS-B
08:48 40.6992 -74.8075 229° Southwest 451 519 36,000  Level FlightAware ADS-B
08:48 40.6568 -74.8729 231° Southwest 450 518 36,000  Level FlightAware ADS-B
08:49 40.6162 -74.9379 230° Southwest 449 517 36,000  Level FlightAware ADS-B
08:49 40.5740 -75.0052 230° Southwest 447 514 36,000  Level FlightAware ADS-B
08:50 40.5318 -75.0721 230° Southwest 447 514 36,000  Level FlightAware ADS-B
08:51 40.4911 -75.1368 230° Southwest 447 514 36,000  Level FlightAware ADS-B
08:51 40.4480 -75.2036 231° Southwest 447 514 36,000  Level FlightAware ADS-B
08:52 40.4074 -75.2683 231° Southwest 447 514 36,000  Level FlightAware ADS-B
08:52 40.3672 -75.3331 230° Southwest 447 514 36,000  Level FlightAware ADS-B
08:53 40.3271 -75.3954 230° Southwest 447 514 36,000  Level FlightAware ADS-B
08:53 40.2822 -75.4661 229° Southwest 447 514 36,000  Level FlightAware ADS-B
08:54 40.2413 -75.5280 229° Southwest 447 514 36,000  Level FlightAware ADS-B
08:54 40.1998 -75.5914 229° Southwest 447 514 36,000  Level FlightAware ADS-B
08:55 40.1576 -75.6547 229° Southwest 447 514 36,000  Level FlightAware ADS-B
08:55 40.1141 -75.7197 229° Southwest 447 514 36,000  Level FlightAware ADS-B
08:56 40.0724 -75.7829 229° Southwest 446 513 36,000  Level FlightAware ADS-B
08:56 40.0281 -75.8501 229° Southwest 446 513 36,000  Level FlightAware ADS-B
08:57 39.9866 -75.9129 229° Southwest 446 513 36,000  Level FlightAware ADS-B
08:57 39.9434 -75.9779 228° Southwest 447 514 36,000  Level FlightAware ADS-B
08:58 39.8990 -76.0428 229° Southwest 447 514 36,000  Level FlightAware ADS-B
08:58 39.8566 -76.1055 229° Southwest 447 514 36,000  Level FlightAware ADS-B
08:59 39.8120 -76.1724 229° Southwest 447 514 36,000  Level FlightAware ADS-B
09:00 39.7657 -76.2411 229° Southwest 446 513 36,000  Level FlightAware ADS-B
09:00 39.7242 -76.3038 229° Southwest 446 513 36,000  Level FlightAware ADS-B
09:01 39.6694 -76.3845 228° Southwest 448 516 36,000  Level FlightAware ADS-B
09:01 39.6277 -76.4448 229° Southwest 448 516 36,000  Level FlightAware ADS-B
09:02 39.5809 -76.5136 229° Southwest 449 517 36,000  Level FlightAware ADS-B
09:02 39.5390 -76.5762 228° Southwest 451 519 36,000  Level FlightAware ADS-B
09:03 39.4954 -76.6393 229° Southwest 453 521 36,000  Level FlightAware ADS-B
09:03 39.4517 -76.7041 228° Southwest 453 521 36,000  Level FlightAware ADS-B
09:04 39.4081 -76.7672 228° Southwest 455 524 36,000  Level FlightAware ADS-B
09:04 39.3634 -76.8323 229° Southwest 456 525 36,000  Level FlightAware ADS-B
09:05 39.3205 -76.8955 228° Southwest 456 525 36,000 60 Level FlightAware ADS-B
09:05 39.2766 -76.9585 228° Southwest 456 525 36,100 60 Climbing FlightAware ADS-B
09:06 39.2339 -77.0193 229° Southwest 456 525 36,100 -120 Level FlightAware ADS-B
09:06 39.1867 -77.0882 228° Southwest 455 524 36,000 -120 Descending FlightAware ADS-B
09:07 39.1404 -77.1551 229° Southwest 455 524 36,000  Level FlightAware ADS-B
09:08 39.0973 -77.2179 232° Southwest 456 525 36,000  Level FlightAware ADS-B
09:08 39.0398 -77.3111 231° Southwest 455 524 36,000  Level FlightAware ADS-B
09:09 38.9854 -77.3981 232° Southwest 456 525 36,000  Level FlightAware ADS-B
09:10 38.9416 -77.4702 231° Southwest 456 525 36,000  Level FlightAware ADS-B
09:10 38.9016 -77.5337 231° Southwest 457 526 36,000  Level FlightAware ADS-B
09:11 38.8541 -77.6098 232° Southwest 456 525 36,000  Level FlightAware ADS-B
09:11 38.8034 -77.6923 231° Southwest 456 525 36,000  Level FlightAware ADS-B
09:12 38.7475 -77.7797 231° Southwest 457 526 36,000  Level Washington Center
09:13 38.6681 -77.9075 231° Southwest 464 534 36,000  Level Washington Center
09:14 38.5906 -78.0300 231° Southwest 459 528 36,000  Level Washington Center
09:15 38.5086 -78.1600 231° Southwest 459 528 36,000  Level Washington Center
09:16 38.4289 -78.2844 231° Southwest 459 528 36,000  Level Washington Center
09:17 38.3489 -78.4086 231° Southwest 459 528 36,000  Level Washington Center
09:18 38.2858 -78.5067 233° Southwest 459 528 36,000 -60 Level Washington Center
09:19 38.1967 -78.6567 231° Southwest 454 522 35,900  Descending Washington Center
09:20 38.1250 -78.7672 231° Southwest 454 522 36,000  Climbing Washington Center
09:21 38.0444 -78.8931 231° Southwest 459 528 36,000  Level Washington Center
09:22 37.9658 -79.0158 231° Southwest 459 528 36,000  Level Washington Center
09:23 37.8850 -79.1439 239° Southwest 459 528 36,000  Level Washington Center
09:24 37.8139 -79.2931 238° Southwest 459 528 36,000  Level Washington Center
09:25 37.7469 -79.4289 236° Southwest 459 528 36,000  Level Washington Center
09:26 37.6803 -79.5514 237° Southwest 473 544 36,000  Level Washington Center
09:27 37.6044 -79.6994 237° Southwest 468 539 36,000  Level Washington Center
09:28 37.5417 -79.8219 238° Southwest 461 531 36,000  Level Washington Center
09:30 37.4006 -80.1075 237° Southwest 468 539 36,000  Level Atlanta Center
09:31 37.3300 -80.2442 237° Southwest 468 539 36,000  Level Atlanta Center
09:32 37.2669 -80.3644 237° Southwest 475 547 36,000  Level Atlanta Center
09:33 37.1958 -80.5006 237° Southwest 475 547 36,000  Level Atlanta Center
09:34 37.1267 -80.6364 241° Southwest 475 547 36,000  Level Atlanta Center
09:35 37.0619 -80.7797 246° West 470 541 36,000  Level Atlanta Center
09:36 37.0036 -80.9433 246° West 470 541 36,000  Level Atlanta Center
09:37 36.9508 -81.0908 246° West 470 541 36,000  Level Atlanta Center
09:38 36.8961 -81.2408 246° West 470 541 36,000  Level Atlanta Center
09:39 36.8431 -81.3906 245° Southwest 470 541 36,000  Level Atlanta Center
09:40 36.7936 -81.5244 247° West 470 541 36,000  Level Atlanta Center
09:41 36.7386 -81.6867 246° West 470 541 36,000  Level Atlanta Center
09:42 36.6850 -81.8333 245° Southwest 463 533 36,000  Level Atlanta Center
09:43 36.6311 -81.9797 245° Southwest 463 533 36,000  Level Atlanta Center
09:44 36.5730 -82.1375 245° Southwest 459 528 36,000  Level FlightAware ADS-B
09:45 36.5460 -82.2091 246° West 457 526 36,000  Level FlightAware ADS-B
09:45 36.5194 -82.2832 245° Southwest 456 525 36,000  Level FlightAware ADS-B
09:46 36.4646 -82.4285 245° Southwest 457 526 36,000  Level FlightAware ADS-B
09:47 36.4353 -82.5076 245° Southwest 458 527 36,000  Level FlightAware ADS-B
09:47 36.4085 -82.5789 245° Southwest 458 527 36,000  Level FlightAware ADS-B
09:48 36.3807 -82.6529 245° Southwest 459 528 36,000  Level FlightAware ADS-B
09:48 36.3498 -82.7364 245° Southwest 460 529 36,000  Level FlightAware ADS-B
09:49 36.3065 -82.8508 244° Southwest 459 528 36,000 60 Level FlightAware ADS-B
09:50 36.2760 -82.9293 245° Southwest 460 529 36,100  Climbing FlightAware ADS-B
09:50 36.2481 -83.0033 245° Southwest 459 528 36,000 -120 Descending FlightAware ADS-B
09:51 36.2006 -83.1297 244° Southwest 460 529 36,000  Level FlightAware ADS-B
09:52 36.1707 -83.2059 245° Southwest 460 529 36,000  Level FlightAware ADS-B
09:52 36.1427 -83.2819 244° Southwest 460 529 36,000  Level FlightAware ADS-B
09:53 36.1136 -83.3554 245° Southwest 459 528 36,000 60 Level FlightAware ADS-B
09:53 36.0855 -83.4288 244° Southwest 458 527 36,100  Climbing FlightAware ADS-B
09:54 36.0554 -83.5067 245° Southwest 457 526 36,000 -120 Descending FlightAware ADS-B
09:54 36.0274 -83.5799 244° Southwest 458 527 36,000  Level FlightAware ADS-B
09:55 35.9991 -83.6529 245° Southwest 459 528 36,000  Level FlightAware ADS-B
09:55 35.9718 -83.7238 244° Southwest 458 527 36,000  Level FlightAware ADS-B
09:56 35.9423 -83.7992 244° Southwest 458 527 36,000  Level FlightAware ADS-B
09:56 35.9197 -83.8554 240° Southwest 457 526 36,000  Level FlightAware ADS-B
09:56 35.9060 -83.8849 236° Southwest 458 527 36,000  Level FlightAware ADS-B
09:57 35.8896 -83.9147 228° Southwest 459 528 36,000  Level FlightAware ADS-B
09:57 35.8461 -83.9734 228° Southwest 463 533 36,000  Level FlightAware ADS-B
09:58 35.8027 -84.0319 228° Southwest 464 534 36,000  Level FlightAware ADS-B
09:58 35.7583 -84.0927 228° Southwest 465 535 36,000  Level FlightAware ADS-B
09:59 35.7106 -84.1577 227° Southwest 469 540 36,000  Level FlightAware ADS-B
09:59 35.6643 -84.2190 228° Southwest 471 542 36,000 60 Level FlightAware ADS-B
10:00 35.6171 -84.2840 227° Southwest 470 541 36,100 60 Climbing FlightAware ADS-B
10:00 35.5720 -84.3432 227° Southwest 471 542 36,100  Level FlightAware ADS-B
10:01 35.5249 -84.4062 228° Southwest 471 542 36,100 -120 Level FlightAware ADS-B
10:01 35.4797 -84.4676 228° Southwest 473 544 36,000 -120 Descending FlightAware ADS-B
10:02 35.4310 -84.5329 227° Southwest 474 545 36,000  Level FlightAware ADS-B
10:02 35.3701 -84.6140 227° Southwest 474 545 36,000  Level FlightAware ADS-B
10:03 35.3251 -84.6735 227° Southwest 476 548 36,000  Level FlightAware ADS-B
10:04 35.2796 -84.7330 227° Southwest 476 548 36,000  Level FlightAware ADS-B
10:04 35.2348 -84.7924 227° Southwest 475 547 36,000  Level FlightAware ADS-B
10:05 35.1875 -84.8553 228° Southwest 473 544 36,000  Level FlightAware ADS-B
10:05 35.1523 -84.9025 231° Southwest 473 544 36,000  Level FlightAware ADS-B
10:05 35.1440 -84.9151 239° Southwest 473 544 36,000  Level FlightAware ADS-B
10:05 35.1207 -84.9631 257° West 474 545 36,000  Level FlightAware ADS-B
10:07 35.0869 -85.1419 259° West 473 544 36,000  Level FlightAware ADS-B
10:07 35.0742 -85.2232 259° West 473 544 36,000  Level FlightAware ADS-B
10:08 35.0613 -85.3071 260° West 473 544 36,000  Level FlightAware ADS-B
10:08 35.0459 -85.4092 259° West 472 543 36,000  Level FlightAware ADS-B
10:09 35.0339 -85.4875 259° West 473 544 36,000  Level FlightAware ADS-B
10:09 35.0203 -85.5742 260° West 474 545 36,000  Level FlightAware ADS-B
10:10 35.0079 -85.6558 259° West 477 549 36,000  Level FlightAware ADS-B
10:10 34.9956 -85.7352 259° West 479 551 36,000  Level FlightAware ADS-B
10:11 34.9794 -85.8360 259° West 481 554 36,000  Level FlightAware ADS-B
10:11 34.9666 -85.9186 259° West 482 555 36,000 60 Level FlightAware ADS-B
10:12 34.9538 -85.9986 259° West 484 557 36,100  Climbing FlightAware ADS-B
10:13 34.9394 -86.0896 259° West 486 559 36,000 -120 Descending FlightAware ADS-B
10:13 34.9263 -86.1703 259° West 487 560 36,000 60 Level FlightAware ADS-B
10:14 34.9125 -86.2562 259° West 487 560 36,100 60 Climbing FlightAware ADS-B
10:14 34.8991 -86.3394 259° West 482 555 36,100 -120 Level FlightAware ADS-B
10:15 34.8858 -86.4213 259° West 478 550 36,000 -120 Descending FlightAware ADS-B
10:15 34.8724 -86.5051 259° West 473 544 36,000  Level FlightAware ADS-B
10:16 34.8400 -86.7023 258° West 472 543 36,000  Level FlightAware ADS-B
10:17 34.8246 -86.7939 258° West 479 551 36,000 60 Level FlightAware ADS-B
10:18 34.8079 -86.8917 259° West 480 552 36,100 60 Climbing FlightAware ADS-B
10:18 34.7883 -87.0105 257° West 480 552 36,100 -120 Level FlightAware ADS-B
10:19 34.7817 -87.0447 259° West 481 554 36,000 -300 Descending Memphis Center
10:20 34.7346 -87.3294 260° West 476 548 35,600 -360 Descending FlightAware ADS-B
10:22 34.7058 -87.5303 262° West 468 539 35,000 -660 Descending Memphis Center
10:23 34.6883 -87.6825 250° West 468 539 34,100 -540 Descending Memphis Center
10:24 34.6436 -87.8328 250° West 463 533 34,000 -300 Descending Memphis Center
10:25 34.5967 -87.9856 250° West 474 545 33,600 -1,920 Descending Memphis Center
10:26 34.5533 -88.1331 252° West 474 545 30,200 -2,820 Descending Memphis Center
10:27 34.5161 -88.2700 259° West 481 554 28,000 -1,500 Descending Memphis Center
10:28 34.4894 -88.4294 265° West 469 540 27,200 -1,500 Descending Memphis Center
10:29 34.4792 -88.5783 267° West 447 514 25,100 -2,700 Descending Memphis Center
10:30 34.4728 -88.7222 266° West 442 509 21,800 -3,180 Descending Memphis Center
10:31 34.4658 -88.8331 267° West 408 470 18,800 -2,820 Descending Memphis Center
10:32 34.4611 -88.9567 265° West 374 430 16,200 -2,400 Descending Memphis Center
10:33 34.4519 -89.0725 264° West 365 420 14,100 -2,100 Descending Memphis Center
10:34 34.4425 -89.1886 265° West 355 409 12,000 -1,500 Descending Memphis Center
10:35 34.4353 -89.2969 268° West 332 382 11,100 -900 Descending Memphis Center
10:36 34.4319 -89.3953 298° West 308 354 10,200 -600 Descending Memphis Center
10:37 34.4700 -89.4806 310° West 280 322 10,000 -240 Descending Memphis Center
10:38 34.5206 -89.5531 312° West 270 311 9,800 -660 Descending Memphis Center
10:39 34.5711 -89.6206 311° West 270 311 8,700 -1,200 Descending Memphis Center
10:40 34.6217 -89.6908 311° West 277 319 7,400 -1,260 Descending Memphis Center
10:41 34.6719 -89.7611 308° West 277 319 6,200 -1,200 Descending Memphis Center
10:42 34.7161 -89.8292 312° West 277 319 5,000 -1,200 Descending Memphis Center
10:43 34.7644 -89.8944 330° Northwest 271 312 3,800 -1,080 Descending Memphis Center
10:44 34.8189 -89.9322 333° Northwest 257 296 2,900 -900 Descending Memphis Center
10:45 34.8794 -89.9697 356° North 245 282 2,100 -480 Descending Memphis Center
10:46 34.9317 -89.9747 360° North 211 243 2,000 -360 Descending Memphis Center
10:47 34.9756 -89.9744 360° North 172 198 1,400 -660 Descending Memphis Center
10:48 35.0108 -89.9742 360° North 136 157 700 -480 Descending Memphis Center
10:49 35.0525 -89.9742 360° North 136 157 500 -240 Descending Memphis Center